createdAt,value
2023-03-04T00:00:18.042Z,0.00
2023-03-04T00:01:18.043Z,0.00
2023-03-04T00:02:18.090Z,0.00
2023-03-04T00:03:18.039Z,0.00
2023-03-04T00:04:17.990Z,0.00
2023-03-04T00:05:18.024Z,0.00
2023-03-04T00:06:17.995Z,0.00
2023-03-04T00:07:17.949Z,0.00
2023-03-04T00:08:17.970Z,0.00
2023-03-04T00:09:17.931Z,0.00
2023-03-04T00:10:17.955Z,0.00
2023-03-04T00:11:17.968Z,0.00
2023-03-04T00:12:20.939Z,0.00
2023-03-04T00:13:17.922Z,0.00
2023-03-04T00:14:17.939Z,0.00
2023-03-04T00:15:17.941Z,0.00
2023-03-04T00:16:17.945Z,0.00
2023-03-04T00:17:17.871Z,0.00
2023-03-04T00:18:17.869Z,0.00
2023-03-04T00:19:17.841Z,0.00
2023-03-04T00:20:17.821Z,0.00
2023-03-04T00:21:17.802Z,0.00
2023-03-04T00:22:17.833Z,0.00
2023-03-04T00:23:17.822Z,0.00
2023-03-04T00:24:17.771Z,0.00
2023-03-04T00:25:17.795Z,0.00
2023-03-04T00:26:17.992Z,0.00
2023-03-04T00:27:20.779Z,0.00
2023-03-04T00:28:17.786Z,0.00
2023-03-04T00:29:17.767Z,0.00
2023-03-04T00:30:17.728Z,0.00
2023-03-04T00:31:17.750Z,0.00
2023-03-04T00:32:17.725Z,0.00
2023-03-04T00:33:17.704Z,0.00
2023-03-04T00:34:17.676Z,0.00
2023-03-04T00:35:17.668Z,0.00
2023-03-04T00:36:17.652Z,0.00
2023-03-04T00:37:17.710Z,0.00
2023-03-04T00:38:17.673Z,0.00
2023-03-04T00:39:17.668Z,0.00
2023-03-04T00:40:17.657Z,0.00
2023-03-04T00:41:17.637Z,0.00
2023-03-04T00:42:20.650Z,0.00
2023-03-04T00:43:17.603Z,0.00
2023-03-04T00:44:17.754Z,0.00
2023-03-04T00:45:17.594Z,0.00
2023-03-04T00:46:17.615Z,0.00
2023-03-04T00:47:17.565Z,0.00
2023-03-04T00:48:17.540Z,0.00
2023-03-04T00:49:17.560Z,0.00
2023-03-04T00:50:17.504Z,0.00
2023-03-04T00:51:17.535Z,0.00
2023-03-04T00:52:17.493Z,0.00
2023-03-04T00:53:17.477Z,0.00
2023-03-04T00:54:17.495Z,0.00
2023-03-04T00:55:17.678Z,0.00
2023-03-04T00:56:17.449Z,0.00
2023-03-04T00:57:20.465Z,0.00
2023-03-04T00:58:17.504Z,0.00
2023-03-04T00:59:17.436Z,0.00
2023-03-04T01:00:17.414Z,0.00
2023-03-04T01:01:17.447Z,0.00
2023-03-04T01:02:17.457Z,0.00
2023-03-04T01:03:17.434Z,0.00
2023-03-04T01:04:17.404Z,0.00
2023-03-04T01:05:17.386Z,0.00
2023-03-04T01:06:17.384Z,0.00
2023-03-04T01:07:17.364Z,0.00
2023-03-04T01:08:17.325Z,0.00
2023-03-04T01:09:17.318Z,0.00
2023-03-04T01:10:17.332Z,0.00
2023-03-04T01:11:17.303Z,0.00
2023-03-04T01:12:20.323Z,0.00
2023-03-04T01:13:17.325Z,0.00
2023-03-04T01:14:17.381Z,0.00
2023-03-04T01:15:17.305Z,0.00
2023-03-04T01:16:17.265Z,0.00
2023-03-04T01:17:17.249Z,0.00
2023-03-04T01:18:17.253Z,0.00
2023-03-04T01:19:17.233Z,0.00
2023-03-04T01:20:17.235Z,0.00
2023-03-04T01:21:17.247Z,0.00
2023-03-04T01:22:17.214Z,0.00
2023-03-04T01:23:17.199Z,0.00
2023-03-04T01:24:17.176Z,0.00
2023-03-04T01:25:17.183Z,0.00
2023-03-04T01:26:17.257Z,0.00
2023-03-04T01:27:21.163Z,0.00
2023-03-04T01:28:17.236Z,0.00
2023-03-04T01:29:17.182Z,0.00
2023-03-04T01:30:17.172Z,0.00
2023-03-04T01:31:17.145Z,0.00
2023-03-04T01:32:17.149Z,0.00
2023-03-04T01:33:17.107Z,0.00
2023-03-04T01:34:17.056Z,0.00
2023-03-04T01:35:17.045Z,0.00
2023-03-04T01:36:17.098Z,0.00
2023-03-04T01:37:17.026Z,0.00
2023-03-04T01:38:17.046Z,0.00
2023-03-04T01:39:17.040Z,0.00
2023-03-04T01:40:17.029Z,0.00
2023-03-04T01:41:17.017Z,0.00
2023-03-04T01:42:20.000Z,0.00
2023-03-04T01:43:17.002Z,0.00
2023-03-04T01:44:16.987Z,0.00
2023-03-04T01:45:16.974Z,0.00
2023-03-04T01:46:17.019Z,0.00
2023-03-04T01:47:16.958Z,0.00
2023-03-04T01:48:16.942Z,0.00
2023-03-04T01:49:16.958Z,0.00
2023-03-04T01:50:16.922Z,0.00
2023-03-04T01:51:16.886Z,0.00
2023-03-04T01:52:16.901Z,0.00
2023-03-04T01:53:16.862Z,0.00
2023-03-04T01:54:17.012Z,0.00
2023-03-04T01:55:16.869Z,0.00
2023-03-04T01:56:16.858Z,0.00
2023-03-04T01:57:19.842Z,0.00
2023-03-04T01:58:16.824Z,0.00
2023-03-04T01:59:16.803Z,0.00
2023-03-04T02:00:16.803Z,0.00
2023-03-04T02:01:16.902Z,0.00
2023-03-04T02:02:16.762Z,0.00
2023-03-04T02:03:16.755Z,0.00
2023-03-04T02:04:16.844Z,0.00
2023-03-04T02:05:16.738Z,0.00
2023-03-04T02:06:16.754Z,0.00
2023-03-04T02:07:16.716Z,0.00
2023-03-04T02:08:16.705Z,0.00
2023-03-04T02:09:16.705Z,0.00
2023-03-04T02:10:16.714Z,0.00
2023-03-04T02:11:16.695Z,0.00
2023-03-04T02:12:19.677Z,0.00
2023-03-04T02:13:16.669Z,0.00
2023-03-04T02:14:16.666Z,0.00
2023-03-04T02:15:16.630Z,0.00
2023-03-04T02:16:16.684Z,0.00
2023-03-04T02:17:16.608Z,0.00
2023-03-04T02:18:16.600Z,0.00
2023-03-04T02:19:16.591Z,0.00
2023-03-04T02:20:16.583Z,0.00
2023-03-04T02:21:16.607Z,0.00
2023-03-04T02:22:16.574Z,0.00
2023-03-04T02:23:16.583Z,0.00
2023-03-04T02:24:16.527Z,0.00
2023-03-04T02:25:16.528Z,0.00
2023-03-04T02:26:16.522Z,0.00
2023-03-04T02:27:21.952Z,0.00
2023-03-04T02:28:16.703Z,0.00
2023-03-04T02:29:16.495Z,0.00
2023-03-04T02:30:16.479Z,0.00
2023-03-04T02:31:16.515Z,0.00
2023-03-04T02:32:16.553Z,0.00
2023-03-04T02:33:16.469Z,0.00
2023-03-04T02:34:16.440Z,0.00
2023-03-04T02:35:16.443Z,0.00
2023-03-04T02:36:16.452Z,0.00
2023-03-04T02:37:16.416Z,0.00
2023-03-04T02:38:16.393Z,0.00
2023-03-04T02:39:16.428Z,0.00
2023-03-04T02:40:16.402Z,0.00
2023-03-04T02:41:16.384Z,0.00
2023-03-04T02:42:19.399Z,0.00
2023-03-04T02:43:16.362Z,0.00
2023-03-04T02:44:16.331Z,0.00
2023-03-04T02:45:16.354Z,0.00
2023-03-04T02:46:16.370Z,0.00
2023-03-04T02:47:16.324Z,0.00
2023-03-04T02:48:16.343Z,0.00
2023-03-04T02:49:16.289Z,0.00
2023-03-04T02:50:16.277Z,0.00
2023-03-04T02:51:16.283Z,0.00
2023-03-04T02:52:16.252Z,0.00
2023-03-04T02:53:16.276Z,0.00
2023-03-04T02:54:16.261Z,0.00
2023-03-04T02:55:16.218Z,0.00
2023-03-04T02:56:16.238Z,0.00
2023-03-04T02:57:19.234Z,0.00
2023-03-04T02:58:16.232Z,0.00
2023-03-04T02:59:16.235Z,0.00
2023-03-04T03:00:16.210Z,0.00
2023-03-04T03:01:16.184Z,0.00
2023-03-04T03:02:16.150Z,0.00
2023-03-04T03:03:16.171Z,0.00
2023-03-04T03:04:16.138Z,0.00
2023-03-04T03:05:16.125Z,0.00
2023-03-04T03:06:16.144Z,0.00
2023-03-04T03:07:16.106Z,0.00
2023-03-04T03:08:16.125Z,0.00
2023-03-04T03:09:16.117Z,0.00
2023-03-04T03:10:16.102Z,0.00
2023-03-04T03:11:16.061Z,0.00
2023-03-04T03:12:19.058Z,0.00
2023-03-04T03:13:16.058Z,0.00
2023-03-04T03:14:16.035Z,0.00
2023-03-04T03:15:16.041Z,0.00
2023-03-04T03:16:16.146Z,0.00
2023-03-04T03:17:16.008Z,0.00
2023-03-04T03:18:16.019Z,0.00
2023-03-04T03:19:15.993Z,0.00
2023-03-04T03:20:16.019Z,0.00
2023-03-04T03:21:15.960Z,0.00
2023-03-04T03:22:15.961Z,0.00
2023-03-04T03:23:15.968Z,0.00
2023-03-04T03:24:15.963Z,0.00
2023-03-04T03:25:15.948Z,0.00
2023-03-04T03:26:15.925Z,0.00
2023-03-04T03:27:18.903Z,0.00
2023-03-04T03:28:15.935Z,0.00
2023-03-04T03:29:15.912Z,0.00
2023-03-04T03:30:15.903Z,0.00
2023-03-04T03:31:15.933Z,0.00
2023-03-04T03:32:15.890Z,0.00
2023-03-04T03:33:15.893Z,0.00
2023-03-04T03:34:15.867Z,0.00
2023-03-04T03:35:15.834Z,0.00
2023-03-04T03:36:15.867Z,0.00
2023-03-04T03:37:15.827Z,0.00
2023-03-04T03:38:15.887Z,0.00
2023-03-04T03:39:15.818Z,0.00
2023-03-04T03:40:15.776Z,0.00
2023-03-04T03:41:15.791Z,0.00
2023-03-04T03:42:18.759Z,0.00
2023-03-04T03:43:15.794Z,0.00
2023-03-04T03:44:15.773Z,0.00
2023-03-04T03:45:15.753Z,0.00
2023-03-04T03:46:15.748Z,0.00
2023-03-04T03:47:15.737Z,0.00
2023-03-04T03:48:15.725Z,0.00
2023-03-04T03:49:15.689Z,0.00
2023-03-04T03:50:15.679Z,0.00
2023-03-04T03:51:15.682Z,0.00
2023-03-04T03:52:15.668Z,0.00
2023-03-04T03:53:15.697Z,0.00
2023-03-04T03:54:15.673Z,0.00
2023-03-04T03:55:15.661Z,0.00
2023-03-04T03:56:15.628Z,0.00
2023-03-04T03:57:18.600Z,0.00
2023-03-04T03:58:15.617Z,0.00
2023-03-04T03:59:15.590Z,0.00
2023-03-04T04:00:15.636Z,0.00
2023-03-04T04:01:15.571Z,0.00
2023-03-04T04:02:15.650Z,0.00
2023-03-04T04:03:15.581Z,0.00
2023-03-04T04:04:15.698Z,0.00
2023-03-04T04:05:15.531Z,0.00
2023-03-04T04:06:15.550Z,0.00
2023-03-04T04:07:15.545Z,0.00
2023-03-04T04:08:15.536Z,0.00
2023-03-04T04:09:15.533Z,0.00
2023-03-04T04:10:15.513Z,0.00
2023-03-04T04:11:15.506Z,0.00
2023-03-04T04:12:18.464Z,0.00
2023-03-04T04:13:15.471Z,0.00
2023-03-04T04:14:15.488Z,0.00
2023-03-04T04:15:15.496Z,0.00
2023-03-04T04:16:15.498Z,0.00
2023-03-04T04:17:15.449Z,0.00
2023-03-04T04:18:15.406Z,0.00
2023-03-04T04:19:15.393Z,0.00
2023-03-04T04:20:15.423Z,0.00
2023-03-04T04:21:15.435Z,0.00
2023-03-04T04:22:15.433Z,0.00
2023-03-04T04:23:15.385Z,0.00
2023-03-04T04:24:15.384Z,0.00
2023-03-04T04:25:15.340Z,0.00
2023-03-04T04:26:15.337Z,0.00
2023-03-04T04:27:18.330Z,0.00
2023-03-04T04:28:15.324Z,0.00
2023-03-04T04:29:15.326Z,0.00
2023-03-04T04:30:15.313Z,0.00
2023-03-04T04:31:15.312Z,0.00
2023-03-04T04:32:15.342Z,0.00
2023-03-04T04:33:15.257Z,0.00
2023-03-04T04:34:15.279Z,0.00
2023-03-04T04:35:15.233Z,0.00
2023-03-04T04:36:15.222Z,0.00
2023-03-04T04:37:15.229Z,0.00
2023-03-04T04:38:15.201Z,0.00
2023-03-04T04:39:15.224Z,0.00
2023-03-04T04:40:15.217Z,0.00
2023-03-04T04:41:15.191Z,0.00
2023-03-04T04:42:18.330Z,0.00
2023-03-04T04:43:15.192Z,0.00
2023-03-04T04:44:15.172Z,0.00
2023-03-04T04:45:15.147Z,0.00
2023-03-04T04:46:15.223Z,0.00
2023-03-04T04:47:15.117Z,0.00
2023-03-04T04:48:15.131Z,0.00
2023-03-04T04:49:15.099Z,0.00
2023-03-04T04:50:15.082Z,0.00
2023-03-04T04:51:15.077Z,0.00
2023-03-04T04:52:15.070Z,0.00
2023-03-04T04:53:15.060Z,0.00
2023-03-04T04:54:15.089Z,0.00
2023-03-04T04:55:15.235Z,0.00
2023-03-04T04:56:15.058Z,0.00
2023-03-04T04:57:18.012Z,0.00
2023-03-04T04:58:15.062Z,0.00
2023-03-04T04:59:15.040Z,0.00
2023-03-04T05:00:15.019Z,0.00
2023-03-04T05:01:15.057Z,0.00
2023-03-04T05:02:14.997Z,0.00
2023-03-04T05:03:17.467Z,0.00
2023-03-04T05:04:14.974Z,0.00
2023-03-04T05:05:14.960Z,0.00
2023-03-04T05:06:14.957Z,0.00
2023-03-04T05:07:14.974Z,0.00
2023-03-04T05:08:14.938Z,0.00
2023-03-04T05:09:14.928Z,0.00
2023-03-04T05:10:14.903Z,0.00
2023-03-04T05:11:14.886Z,0.00
2023-03-04T05:12:17.898Z,0.00
2023-03-04T05:13:14.909Z,0.00
2023-03-04T05:14:14.891Z,0.00
2023-03-04T05:15:14.856Z,0.00
2023-03-04T05:16:14.895Z,0.00
2023-03-04T05:17:14.866Z,0.00
2023-03-04T05:18:14.820Z,0.00
2023-03-04T05:19:14.814Z,0.00
2023-03-04T05:20:14.847Z,0.00
2023-03-04T05:21:14.815Z,0.00
2023-03-04T05:22:14.792Z,0.00
2023-03-04T05:23:14.971Z,0.00
2023-03-04T05:24:14.889Z,0.00
2023-03-04T05:25:15.764Z,0.00
2023-03-04T05:26:14.748Z,0.00
2023-03-04T05:27:17.774Z,0.00
2023-03-04T05:28:14.736Z,0.00
2023-03-04T05:29:14.760Z,0.00
2023-03-04T05:30:14.699Z,0.00
2023-03-04T05:31:14.759Z,0.00
2023-03-04T05:32:14.741Z,0.00
2023-03-04T05:33:14.675Z,0.00
2023-03-04T05:34:14.812Z,0.00
2023-03-04T05:35:14.660Z,0.00
2023-03-04T05:36:14.642Z,0.00
2023-03-04T05:37:14.584Z,0.00
2023-03-04T05:38:14.567Z,0.00
2023-03-04T05:39:14.584Z,0.00
2023-03-04T05:40:14.549Z,0.00
2023-03-04T05:41:14.573Z,0.00
2023-03-04T05:42:17.567Z,0.00
2023-03-04T05:43:14.706Z,0.00
2023-03-04T05:44:14.526Z,0.00
2023-03-04T05:45:14.512Z,0.00
2023-03-04T05:46:14.533Z,0.00
2023-03-04T05:47:14.518Z,0.00
2023-03-04T05:48:14.467Z,0.00
2023-03-04T05:49:14.605Z,0.00
2023-03-04T05:50:14.450Z,0.00
2023-03-04T05:51:14.466Z,0.00
2023-03-04T05:52:14.457Z,0.00
2023-03-04T05:53:14.449Z,0.00
2023-03-04T05:54:14.439Z,5.62
2023-03-04T05:55:14.426Z,5.62
2023-03-04T05:56:14.392Z,5.62
2023-03-04T05:57:17.400Z,5.62
2023-03-04T05:58:14.409Z,5.62
2023-03-04T05:59:14.394Z,5.62
2023-03-04T06:00:14.366Z,5.62
2023-03-04T06:01:14.349Z,11.25
2023-03-04T06:02:14.351Z,11.25
2023-03-04T06:03:14.349Z,11.25
2023-03-04T06:04:14.411Z,11.25
2023-03-04T06:05:14.350Z,16.88
2023-03-04T06:06:14.290Z,16.88
2023-03-04T06:07:14.292Z,16.88
2023-03-04T06:08:14.293Z,22.50
2023-03-04T06:09:14.319Z,22.50
2023-03-04T06:10:14.294Z,22.50
2023-03-04T06:11:14.250Z,28.12
2023-03-04T06:12:17.238Z,28.12
2023-03-04T06:13:14.250Z,28.12
2023-03-04T06:14:14.298Z,33.75
2023-03-04T06:15:14.240Z,33.75
2023-03-04T06:16:14.345Z,33.75
2023-03-04T06:17:14.188Z,33.75
2023-03-04T06:18:14.239Z,39.38
2023-03-04T06:19:14.248Z,39.38
2023-03-04T06:20:14.171Z,45.00
2023-03-04T06:21:14.154Z,45.00
2023-03-04T06:22:14.152Z,45.00
2023-03-04T06:23:14.141Z,50.62
2023-03-04T06:24:14.119Z,56.25
2023-03-04T06:25:14.108Z,56.25
2023-03-04T06:26:14.128Z,61.88
2023-03-04T06:27:17.114Z,61.88
2023-03-04T06:28:14.095Z,67.50
2023-03-04T06:29:14.127Z,67.50
2023-03-04T06:30:14.060Z,67.50
2023-03-04T06:31:14.096Z,73.12
2023-03-04T06:32:14.068Z,73.12
2023-03-04T06:33:14.054Z,78.75
2023-03-04T06:34:14.011Z,84.38
2023-03-04T06:35:14.050Z,84.38
2023-03-04T06:36:14.002Z,90.00
2023-03-04T06:37:14.024Z,90.00
2023-03-04T06:38:13.990Z,90.00
2023-03-04T06:39:13.995Z,95.62
2023-03-04T06:40:14.149Z,95.62
2023-03-04T06:41:13.943Z,101.25
2023-03-04T06:42:16.990Z,101.25
2023-03-04T06:43:13.971Z,106.88
2023-03-04T06:44:13.910Z,106.88
2023-03-04T06:45:13.911Z,106.88
2023-03-04T06:46:13.949Z,106.88
2023-03-04T06:47:13.887Z,112.50
2023-03-04T06:48:13.877Z,112.50
2023-03-04T06:49:13.861Z,118.12
2023-03-04T06:50:13.861Z,118.12
2023-03-04T06:51:13.860Z,118.12
2023-03-04T06:52:13.970Z,123.75
2023-03-04T06:53:13.860Z,123.75
2023-03-04T06:54:13.847Z,129.38
2023-03-04T06:55:13.838Z,135.00
2023-03-04T06:56:13.840Z,140.62
2023-03-04T06:57:16.787Z,146.25
2023-03-04T06:58:13.802Z,146.25
2023-03-04T06:59:13.793Z,151.88
2023-03-04T07:00:13.766Z,151.88
2023-03-04T07:01:13.830Z,157.50
2023-03-04T07:02:13.749Z,163.12
2023-03-04T07:03:13.901Z,168.75
2023-03-04T07:04:13.802Z,168.75
2023-03-04T07:05:13.942Z,174.38
2023-03-04T07:06:13.744Z,180.00
2023-03-04T07:07:13.689Z,180.00
2023-03-04T07:08:13.682Z,185.62
2023-03-04T07:09:13.672Z,185.62
2023-03-04T07:10:13.693Z,191.25
2023-03-04T07:11:13.642Z,196.88
2023-03-04T07:12:16.643Z,202.50
2023-03-04T07:13:13.654Z,208.12
2023-03-04T07:14:13.625Z,213.75
2023-03-04T07:15:13.640Z,213.75
2023-03-04T07:16:13.682Z,219.38
2023-03-04T07:17:13.629Z,219.38
2023-03-04T07:18:13.582Z,225.00
2023-03-04T07:19:13.592Z,225.00
2023-03-04T07:20:13.593Z,230.62
2023-03-04T07:21:13.552Z,236.25
2023-03-04T07:22:13.565Z,241.88
2023-03-04T07:23:13.559Z,247.50
2023-03-04T07:24:13.518Z,253.12
2023-03-04T07:25:13.521Z,264.38
2023-03-04T07:26:13.514Z,270.00
2023-03-04T07:27:16.612Z,270.00
2023-03-04T07:28:13.525Z,270.00
2023-03-04T07:29:13.466Z,275.62
2023-03-04T07:30:13.496Z,275.62
2023-03-04T07:31:13.452Z,281.25
2023-03-04T07:32:13.578Z,286.88
2023-03-04T07:33:13.445Z,292.50
2023-03-04T07:34:13.485Z,303.75
2023-03-04T07:35:13.442Z,303.75
2023-03-04T07:36:13.410Z,309.38
2023-03-04T07:37:13.415Z,309.38
2023-03-04T07:38:13.385Z,315.00
2023-03-04T07:39:13.369Z,315.00
2023-03-04T07:40:13.363Z,315.00
2023-03-04T07:41:13.349Z,320.62
2023-03-04T07:42:16.390Z,320.62
2023-03-04T07:43:13.368Z,320.62
2023-03-04T07:44:13.551Z,320.62
2023-03-04T07:45:13.345Z,326.25
2023-03-04T07:46:13.392Z,326.25
2023-03-04T07:47:13.332Z,331.88
2023-03-04T07:48:13.289Z,337.50
2023-03-04T07:49:13.420Z,348.75
2023-03-04T07:50:13.300Z,360.00
2023-03-04T07:51:13.252Z,360.00
2023-03-04T07:52:13.251Z,371.25
2023-03-04T07:53:13.281Z,382.50
2023-03-04T07:54:13.271Z,399.38
2023-03-04T07:55:13.211Z,416.25
2023-03-04T07:56:13.231Z,421.88
2023-03-04T07:57:16.286Z,427.50
2023-03-04T07:58:13.191Z,427.50
2023-03-04T07:59:13.168Z,433.12
2023-03-04T08:00:13.157Z,438.75
2023-03-04T08:01:13.149Z,455.62
2023-03-04T08:02:13.226Z,472.50
2023-03-04T08:03:13.125Z,495.00
2023-03-04T08:04:13.188Z,511.88
2023-03-04T08:05:13.134Z,523.12
2023-03-04T08:06:13.091Z,523.12
2023-03-04T08:07:13.120Z,528.75
2023-03-04T08:08:13.076Z,534.38
2023-03-04T08:09:13.062Z,551.25
2023-03-04T08:10:13.086Z,590.62
2023-03-04T08:11:13.075Z,697.50
2023-03-04T08:12:16.060Z,658.12
2023-03-04T08:13:13.076Z,680.62
2023-03-04T08:14:13.027Z,669.38
2023-03-04T08:15:13.140Z,675.00
2023-03-04T08:16:13.131Z,658.12
2023-03-04T08:17:13.001Z,652.50
2023-03-04T08:18:12.970Z,652.50
2023-03-04T08:19:12.984Z,658.12
2023-03-04T08:20:12.951Z,663.75
2023-03-04T08:21:12.963Z,675.00
2023-03-04T08:22:12.953Z,680.62
2023-03-04T08:23:12.920Z,686.25
2023-03-04T08:24:12.946Z,686.25
2023-03-04T08:25:12.918Z,697.50
2023-03-04T08:26:12.937Z,703.12
2023-03-04T08:27:15.875Z,714.38
2023-03-04T08:28:12.905Z,725.62
2023-03-04T08:29:12.904Z,714.38
2023-03-04T08:30:12.847Z,725.62
2023-03-04T08:31:13.031Z,821.25
2023-03-04T08:32:12.923Z,860.62
2023-03-04T08:33:12.848Z,894.38
2023-03-04T08:34:12.794Z,877.50
2023-03-04T08:35:12.819Z,894.38
2023-03-04T08:36:12.816Z,905.62
2023-03-04T08:37:12.792Z,933.75
2023-03-04T08:38:12.752Z,950.62
2023-03-04T08:39:12.760Z,956.25
2023-03-04T08:40:12.758Z,973.12
2023-03-04T08:41:12.747Z,950.62
2023-03-04T08:42:15.736Z,939.38
2023-03-04T08:43:12.724Z,1023.75
2023-03-04T08:44:12.718Z,1029.38
2023-03-04T08:45:12.693Z,1006.88
2023-03-04T08:46:12.713Z,1012.50
2023-03-04T08:47:12.747Z,1006.88
2023-03-04T08:48:12.656Z,1035.00
2023-03-04T08:49:12.636Z,1057.50
2023-03-04T08:50:12.630Z,1068.75
2023-03-04T08:51:12.624Z,1046.25
2023-03-04T08:52:12.636Z,1046.25
2023-03-04T08:53:12.626Z,1012.50
2023-03-04T08:54:12.599Z,933.75
2023-03-04T08:55:12.613Z,928.12
2023-03-04T08:56:12.569Z,911.25
2023-03-04T08:57:15.584Z,950.62
2023-03-04T08:59:12.566Z,967.50
2023-03-04T09:00:12.557Z,933.75
2023-03-04T09:01:12.559Z,922.50
2023-03-04T09:02:12.534Z,916.88
2023-03-04T09:03:12.622Z,956.25
2023-03-04T09:04:12.486Z,905.62
2023-03-04T09:05:12.508Z,911.25
2023-03-04T09:06:12.506Z,911.25
2023-03-04T09:07:12.459Z,928.12
2023-03-04T09:08:12.568Z,922.50
2023-03-04T09:09:12.472Z,961.88
2023-03-04T09:10:12.434Z,1018.12
2023-03-04T09:11:12.422Z,1001.25
2023-03-04T09:12:15.408Z,1068.75
2023-03-04T09:13:12.447Z,1029.38
2023-03-04T09:14:13.370Z,1029.38
2023-03-04T09:15:12.380Z,1035.00
2023-03-04T09:16:12.486Z,1006.88
2023-03-04T09:17:12.361Z,1018.12
2023-03-04T09:18:12.382Z,1085.62
2023-03-04T09:19:12.553Z,1029.38
2023-03-04T09:20:12.320Z,1102.50
2023-03-04T09:21:12.329Z,1170.00
2023-03-04T09:22:12.330Z,1130.62
2023-03-04T09:23:12.295Z,1198.12
2023-03-04T09:24:12.281Z,1209.38
2023-03-04T09:25:13.267Z,1271.25
2023-03-04T09:26:12.296Z,1260.00
2023-03-04T09:27:15.281Z,1237.50
2023-03-04T09:28:12.272Z,1248.75
2023-03-04T09:29:12.241Z,1305.00
2023-03-04T09:30:12.252Z,1288.12
2023-03-04T09:31:12.260Z,1305.00
2023-03-04T09:32:12.253Z,1310.62
2023-03-04T09:33:12.194Z,1293.75
2023-03-04T09:34:12.196Z,1338.75
2023-03-04T09:35:12.184Z,1411.88
2023-03-04T09:36:12.197Z,1490.62
2023-03-04T09:37:12.162Z,1513.12
2023-03-04T09:38:12.184Z,1496.25
2023-03-04T09:39:12.134Z,1507.50
2023-03-04T09:40:12.142Z,1490.62
2023-03-04T09:41:12.106Z,1501.88
2023-03-04T09:42:15.101Z,1490.62
2023-03-04T09:43:12.130Z,1507.50
2023-03-04T09:44:12.072Z,1541.25
2023-03-04T09:45:12.127Z,1580.62
2023-03-04T09:46:12.099Z,1636.88
2023-03-04T09:47:12.075Z,1676.25
2023-03-04T09:48:12.208Z,1687.50
2023-03-04T09:49:12.050Z,1653.75
2023-03-04T09:50:12.016Z,1738.12
2023-03-04T09:51:12.073Z,1518.75
2023-03-04T09:52:12.026Z,1119.38
2023-03-04T09:53:12.007Z,1057.50
2023-03-04T09:54:12.013Z,1063.12
2023-03-04T09:55:11.959Z,1023.75
2023-03-04T09:56:11.992Z,1051.88
2023-03-04T09:57:14.943Z,1102.50
2023-03-04T09:58:11.969Z,1147.50
2023-03-04T09:59:11.946Z,1192.50
2023-03-04T10:00:11.935Z,1361.25
2023-03-04T10:01:11.935Z,1372.50
2023-03-04T10:02:11.907Z,1350.00
2023-03-04T10:03:12.016Z,1856.25
2023-03-04T10:04:11.868Z,1845.00
2023-03-04T10:05:11.896Z,1873.12
2023-03-04T10:06:11.887Z,1974.38
2023-03-04T10:07:11.848Z,2036.25
2023-03-04T10:08:11.832Z,1890.00
2023-03-04T10:09:11.838Z,1755.00
2023-03-04T10:10:11.808Z,1698.75
2023-03-04T10:11:11.801Z,1771.88
2023-03-04T10:12:14.813Z,1440.00
2023-03-04T10:13:11.993Z,1288.12
2023-03-04T10:14:11.794Z,1282.50
2023-03-04T10:15:11.778Z,1175.62
2023-03-04T10:16:11.775Z,1170.00
2023-03-04T10:17:11.759Z,1220.62
2023-03-04T10:18:11.890Z,1181.25
2023-03-04T10:19:11.731Z,1293.75
2023-03-04T10:20:11.734Z,1338.75
2023-03-04T10:21:11.688Z,1440.00
2023-03-04T10:22:11.713Z,1355.62
2023-03-04T10:23:11.719Z,1681.88
2023-03-04T10:24:11.679Z,1726.88
2023-03-04T10:25:11.680Z,1850.62
2023-03-04T10:26:11.737Z,1940.62
2023-03-04T10:27:14.652Z,1912.50
2023-03-04T10:28:11.660Z,1771.88
2023-03-04T10:29:11.630Z,1794.38
2023-03-04T10:30:11.599Z,1372.50
2023-03-04T10:31:11.617Z,1546.88
2023-03-04T10:32:11.617Z,1884.38
2023-03-04T10:33:11.616Z,1648.12
2023-03-04T10:34:11.555Z,1693.12
2023-03-04T10:35:11.538Z,1766.25
2023-03-04T10:36:11.543Z,1771.88
2023-03-04T10:37:11.543Z,1597.50
2023-03-04T10:38:11.551Z,1338.75
2023-03-04T10:39:11.495Z,1299.38
2023-03-04T10:40:11.502Z,1468.12
2023-03-04T10:41:11.506Z,1265.62
2023-03-04T10:42:14.611Z,1276.88
2023-03-04T10:43:11.465Z,1125.00
2023-03-04T10:44:11.505Z,1130.62
2023-03-04T10:45:11.472Z,1254.38
2023-03-04T10:46:11.467Z,1406.25
2023-03-04T10:47:11.422Z,1468.12
2023-03-04T10:48:12.384Z,1501.88
2023-03-04T10:49:11.424Z,1428.75
2023-03-04T10:50:11.403Z,1293.75
2023-03-04T10:51:11.394Z,1271.25
2023-03-04T10:52:11.365Z,1755.00
2023-03-04T10:53:11.339Z,1856.25
2023-03-04T10:54:11.383Z,1361.25
2023-03-04T10:55:11.349Z,1305.00
2023-03-04T10:56:11.343Z,1265.62
2023-03-04T10:57:14.321Z,1220.62
2023-03-04T10:58:11.307Z,1186.88
2023-03-04T10:59:11.283Z,1136.25
2023-03-04T11:00:11.267Z,1091.25
2023-03-04T11:01:11.293Z,1068.75
2023-03-04T11:02:11.423Z,1074.38
2023-03-04T11:03:11.258Z,1096.88
2023-03-04T11:04:11.239Z,1130.62
2023-03-04T11:05:11.250Z,1170.00
2023-03-04T11:06:11.235Z,1276.88
2023-03-04T11:07:11.218Z,1271.25
2023-03-04T11:08:11.199Z,1501.88
2023-03-04T11:09:11.170Z,1389.38
2023-03-04T11:10:11.177Z,1816.88
2023-03-04T11:11:11.179Z,1462.50
2023-03-04T11:12:14.173Z,1648.12
2023-03-04T11:13:11.142Z,1642.50
2023-03-04T11:14:11.147Z,1912.50
2023-03-04T11:15:11.137Z,1957.50
2023-03-04T11:16:11.175Z,2002.50
2023-03-04T11:17:11.118Z,1957.50
2023-03-04T11:18:11.243Z,1923.75
2023-03-04T11:19:11.061Z,2182.50
2023-03-04T11:20:11.076Z,2238.75
2023-03-04T11:21:11.051Z,2266.88
2023-03-04T11:22:11.027Z,2227.50
2023-03-04T11:23:12.175Z,2238.75
2023-03-04T11:24:25.742Z,2390.62
2023-03-04T11:25:12.020Z,2463.75
2023-03-04T11:26:11.019Z,2418.75
2023-03-04T11:27:13.980Z,2328.75
2023-03-04T11:28:11.541Z,2306.25
2023-03-04T11:29:10.987Z,2266.88
2023-03-04T11:30:10.944Z,2311.88
2023-03-04T11:31:10.935Z,2306.25
2023-03-04T11:32:11.017Z,2289.38
2023-03-04T11:33:10.919Z,2340.00
2023-03-04T11:34:13.519Z,2221.88
2023-03-04T11:35:10.973Z,2115.00
2023-03-04T11:36:10.892Z,2233.12
2023-03-04T11:37:10.882Z,2131.88
2023-03-04T11:38:10.882Z,2098.12
2023-03-04T11:39:10.905Z,2053.12
2023-03-04T11:40:10.930Z,1856.25
2023-03-04T11:41:10.848Z,1580.62
2023-03-04T11:42:13.872Z,1726.88
2023-03-04T11:43:10.851Z,2160.00
2023-03-04T11:44:10.822Z,2283.75
2023-03-04T11:45:26.128Z,2328.75
2023-03-04T11:46:11.874Z,2289.38
2023-03-04T11:47:10.810Z,2216.25
2023-03-04T11:48:10.823Z,2148.75
2023-03-04T11:49:10.813Z,2154.38
2023-03-04T11:50:10.814Z,2148.75
2023-03-04T11:51:12.892Z,2053.12
2023-03-04T11:52:10.777Z,2013.75
2023-03-04T11:53:10.790Z,2092.50
2023-03-04T11:54:10.726Z,2238.75
2023-03-04T11:55:10.725Z,2272.50
2023-03-04T11:56:10.706Z,2244.38
2023-03-04T11:57:13.689Z,2255.62
2023-03-04T11:58:10.731Z,2193.75
2023-03-04T11:59:10.674Z,2115.00
2023-03-04T12:00:10.669Z,1636.88
2023-03-04T12:01:10.688Z,2070.00
2023-03-04T12:02:10.677Z,2109.38
2023-03-04T12:03:12.929Z,2131.88
2023-03-04T12:04:10.745Z,2193.75
2023-03-04T12:05:10.604Z,2334.38
2023-03-04T12:06:10.611Z,2362.50
2023-03-04T12:07:10.619Z,2345.62
2023-03-04T12:08:10.587Z,2345.62
2023-03-04T12:09:10.586Z,2311.88
2023-03-04T12:10:10.585Z,2323.12
2023-03-04T12:11:10.572Z,2311.88
2023-03-04T12:12:13.530Z,2356.88
2023-03-04T12:13:10.538Z,2430.00
2023-03-04T12:14:10.559Z,2368.12
2023-03-04T12:15:10.497Z,2548.12
2023-03-04T12:16:10.573Z,2610.00
2023-03-04T12:17:10.507Z,2531.25
2023-03-04T12:18:10.660Z,2525.62
2023-03-04T12:19:10.462Z,2536.88
2023-03-04T12:20:10.448Z,2362.50
2023-03-04T12:21:10.440Z,2458.12
2023-03-04T12:22:10.430Z,1597.50
2023-03-04T12:23:10.490Z,1546.88
2023-03-04T12:24:10.443Z,1490.62
2023-03-04T12:25:10.437Z,1260.00
2023-03-04T12:26:10.392Z,1260.00
2023-03-04T12:27:13.399Z,1327.50
2023-03-04T12:28:10.403Z,1310.62
2023-03-04T12:29:10.433Z,1513.12
2023-03-04T12:30:10.348Z,1299.38
2023-03-04T12:31:10.373Z,1299.38
2023-03-04T12:32:10.324Z,1524.38
2023-03-04T12:33:10.367Z,1687.50
2023-03-04T12:34:10.354Z,1518.75
2023-03-04T12:35:10.309Z,1338.75
2023-03-04T12:36:10.296Z,1299.38
2023-03-04T12:37:10.269Z,1288.12
2023-03-04T12:38:10.281Z,1372.50
2023-03-04T12:39:10.300Z,1282.50
2023-03-04T12:40:10.275Z,2064.38
2023-03-04T12:41:10.281Z,1940.62
2023-03-04T12:42:13.227Z,1946.25
2023-03-04T12:43:10.247Z,1996.88
2023-03-04T12:44:10.218Z,1507.50
2023-03-04T12:45:10.219Z,2238.75
2023-03-04T12:46:10.234Z,2109.38